Decoded Metar for EIKN (CONNAUGHT in IRELAND) (IATA:NOC) | Meteo·Mobile Aviation Weather
aviador You're here:

EIKN Decoded Metar

CONNAUGHT in IRELAND
Report Time2018-08-21 16:00:00
UTC Time2018-08-21 16:07:46
Flight Rules mvfr MVFR
Wind210° at 10 kt
W.Decomp.*RWY 27: 5.9 kt HW 8.1 kt LCW
W.Rank210° ranks 1
Current wind is below 210° avg. (10.3)
Visibility9999 m
Phenomena:N/A
Clouds:Few 007 Hf
Broken 010 Hf
Expected CloudBase > 800 ft AGL from Temp-Dew spread
Ceiling1,000 ft
Temp18°C (ISA +3)
Dew Point16°C (88% RH)
AAT16.4°C
QNH1015 hPa
Density Alt787 ft
Elevation210 ft
Report Wrong Elevation
Raw Report
METAR EIKN 211600Z 21010KT 180V250 9999 FEW007 BKN010 18/16 Q1015 NOSIG=

Extra information for EIKN:More info

Metar Taf Metar & Taf Last 4 Metars F.Rules Stats Wind Profile Meteogram Temp Stats Airport Information Weather charts Add Link Nearby VenuesMetar ALERT Operation Metar Decoded Social comments